createdAt,value
2019-04-07T00:01:57.316Z,23.05
2019-04-07T00:04:27.270Z,19.70
2019-04-07T00:06:56.835Z,20.43
2019-04-07T00:09:26.497Z,18.30
2019-04-07T00:11:56.235Z,20.43
2019-04-07T00:14:26.108Z,19.25
2019-04-07T00:16:55.885Z,18.52
2019-04-07T00:19:25.639Z,19.77
2019-04-07T00:21:55.752Z,18.48
2019-04-07T00:24:25.525Z,17.92
2019-04-07T00:26:55.149Z,16.57
2019-04-07T00:29:24.813Z,20.50
2019-04-07T00:31:54.455Z,22.40
2019-04-07T00:34:24.728Z,21.57
2019-04-07T00:36:55.773Z,21.17
2019-04-07T00:39:25.940Z,25.70
2019-04-07T00:41:56.517Z,22.98
2019-04-07T00:44:26.271Z,20.45
2019-04-07T00:46:55.887Z,18.42
2019-04-07T00:49:25.811Z,17.87
2019-04-07T00:51:56.118Z,18.57
2019-04-07T00:54:25.786Z,20.05
2019-04-07T00:56:55.652Z,22.62
2019-04-07T00:59:25.477Z,20.23
2019-04-07T01:01:55.286Z,19.37
2019-04-07T01:04:25.354Z,17.27
2019-04-07T01:06:55.005Z,17.45
2019-04-07T01:09:24.683Z,18.02
2019-04-07T01:11:54.789Z,16.00
2019-04-07T01:14:25.603Z,15.38
2019-04-07T01:16:56.445Z,16.40
2019-04-07T01:19:26.701Z,16.52
2019-04-07T01:21:56.441Z,16.20
2019-04-07T01:24:26.606Z,17.80
2019-04-07T01:26:56.739Z,16.07
2019-04-07T01:29:26.868Z,16.87
2019-04-07T01:31:56.494Z,16.25
2019-04-07T01:34:26.250Z,17.42
2019-04-07T01:36:55.888Z,15.70
2019-04-07T01:39:25.663Z,15.98
2019-04-07T01:42:02.946Z,15.95
2019-04-07T01:44:37.156Z,18.17
2019-04-07T01:47:23.180Z,18.95
2019-04-07T01:49:54.475Z,17.40
2019-04-07T01:52:40.600Z,19.48
2019-04-07T01:55:15.517Z,18.30
2019-04-07T01:57:46.756Z,21.62
2019-04-07T02:00:27.107Z,20.17
2019-04-07T02:03:10.107Z,20.25
2019-04-07T02:05:44.315Z,19.85
2019-04-07T02:08:18.458Z,20.30
2019-04-07T02:10:49.750Z,19.95
2019-04-07T02:13:37.181Z,19.25
2019-04-07T02:16:23.607Z,20.05
2019-04-07T02:18:55.450Z,20.50
2019-04-07T02:21:27.391Z,19.02
2019-04-07T02:23:59.078Z,20.37
2019-04-07T02:26:41.339Z,19.57
2019-04-07T02:29:29.154Z,17.92
2019-04-07T02:32:16.077Z,17.37
2019-04-07T02:35:03.695Z,19.67
2019-04-07T02:37:38.622Z,18.32
2019-04-07T02:40:16.138Z,17.92
2019-04-07T02:42:53.213Z,19.27
2019-04-07T02:45:28.227Z,18.77
2019-04-07T02:48:18.122Z,18.75
2019-04-07T02:51:01.538Z,19.52
2019-04-07T02:53:33.073Z,19.40
2019-04-07T02:56:08.093Z,19.98
2019-04-07T02:58:40.216Z,20.20
2019-04-07T03:01:27.900Z,19.92
2019-04-07T03:04:07.933Z,21.97
2019-04-07T03:06:47.765Z,23.85
2019-04-07T03:09:24.460Z,26.07
2019-04-07T03:12:05.228Z,24.60
2019-04-07T03:14:39.308Z,25.95
2019-04-07T03:17:27.441Z,24.12
2019-04-07T03:20:01.172Z,27.80
2019-04-07T03:22:48.741Z,23.75
2019-04-07T03:25:32.485Z,23.25
2019-04-07T03:28:04.645Z,23.38
2019-04-07T03:30:52.443Z,22.30
2019-04-07T03:33:43.363Z,25.37
2019-04-07T03:36:30.264Z,28.38
2019-04-07T03:39:01.997Z,27.73
2019-04-07T03:41:49.405Z,27.93
2019-04-07T03:44:20.701Z,26.30
2019-04-07T03:47:08.830Z,25.32
2019-04-07T03:49:43.538Z,28.10
2019-04-07T03:52:25.013Z,25.02
2019-04-07T03:55:01.860Z,23.45
2019-04-07T03:57:33.194Z,21.12
2019-04-07T04:00:10.590Z,21.07
2019-04-07T04:02:56.816Z,21.12
2019-04-07T04:05:34.201Z,20.52
2019-04-07T04:08:11.618Z,20.60
2019-04-07T04:11:00.037Z,22.07
2019-04-07T04:13:41.142Z,20.75
2019-04-07T04:16:11.202Z,21.60
2019-04-07T04:18:40.826Z,21.05
2019-04-07T04:21:11.273Z,21.10
2019-04-07T04:23:42.931Z,20.00
2019-04-07T04:26:12.976Z,22.22
2019-04-07T04:28:43.003Z,21.40
2019-04-07T04:31:13.007Z,21.93
2019-04-07T04:33:42.674Z,28.62
2019-04-07T04:36:13.453Z,22.75
2019-04-07T04:38:44.050Z,21.73
2019-04-07T04:41:13.810Z,23.05
2019-04-07T04:43:43.465Z,20.95
2019-04-07T04:46:13.567Z,21.35
2019-04-07T04:48:43.275Z,20.95
2019-04-07T04:51:13.695Z,21.97
2019-04-07T04:53:44.299Z,21.60
2019-04-07T04:56:14.613Z,23.50
2019-04-07T04:58:44.385Z,20.95
2019-04-07T05:01:16.437Z,22.87
2019-04-07T05:03:46.262Z,23.62
2019-04-07T05:06:15.916Z,22.48
2019-04-07T05:08:45.686Z,23.52
2019-04-07T05:11:15.858Z,22.25
2019-04-07T05:13:45.521Z,22.25
2019-04-07T05:16:15.154Z,23.87
2019-04-07T05:18:44.985Z,23.10
2019-04-07T05:21:15.101Z,22.87
2019-04-07T05:23:45.096Z,22.58
2019-04-07T05:26:14.773Z,22.13
2019-04-07T05:28:45.046Z,22.98
2019-04-07T05:31:14.721Z,22.62
2019-04-07T05:33:44.913Z,22.30
2019-04-07T05:36:14.789Z,21.70
2019-04-07T05:38:44.592Z,21.87
2019-04-07T05:41:14.233Z,21.93
2019-04-07T05:43:43.881Z,21.17
2019-04-07T05:46:13.846Z,21.00
2019-04-07T05:48:43.640Z,20.12
2019-04-07T05:51:13.404Z,21.68
2019-04-07T05:53:46.427Z,21.87
2019-04-07T05:56:14.417Z,20.55
2019-04-07T05:58:44.081Z,21.70
2019-04-07T06:01:14.050Z,20.97
2019-04-07T06:03:43.763Z,20.80
2019-04-07T06:06:13.537Z,19.25
2019-04-07T06:08:43.204Z,21.35
2019-04-07T06:11:12.835Z,25.00
2019-04-07T06:13:44.596Z,23.10
2019-04-07T06:16:14.060Z,20.90
2019-04-07T06:18:44.445Z,19.62
2019-04-07T06:21:16.092Z,20.02
2019-04-07T06:23:45.524Z,19.15
2019-04-07T06:26:15.162Z,19.55
2019-04-07T06:28:48.455Z,18.98
2019-04-07T06:31:16.178Z,18.87
2019-04-07T06:33:45.893Z,19.40
2019-04-07T06:36:19.490Z,19.65
2019-04-07T06:38:51.350Z,18.20
2019-04-07T06:41:18.443Z,18.35
2019-04-07T06:43:48.043Z,17.40
2019-04-07T06:46:19.635Z,19.17
2019-04-07T06:49:02.701Z,18.87
2019-04-07T06:51:52.762Z,17.40
2019-04-07T06:54:26.782Z,17.17
2019-04-07T06:57:05.979Z,17.17
2019-04-07T06:59:40.534Z,19.20
2019-04-07T07:02:18.622Z,17.80
2019-04-07T07:04:59.365Z,18.52
2019-04-07T07:07:42.716Z,19.17
2019-04-07T07:10:25.269Z,18.27
2019-04-07T07:12:47.217Z,19.40
2019-04-07T07:15:33.101Z,18.75
2019-04-07T07:18:15.519Z,17.57
2019-04-07T07:20:47.341Z,18.35
2019-04-07T07:23:18.746Z,18.07
2019-04-07T07:25:48.623Z,17.70
2019-04-07T07:28:18.355Z,17.73
2019-04-07T07:30:51.110Z,17.52
2019-04-07T07:33:20.221Z,19.12
2019-04-07T07:35:50.795Z,19.23
2019-04-07T07:38:20.496Z,18.80
2019-04-07T07:40:50.203Z,18.90
2019-04-07T07:43:19.908Z,18.00
2019-04-07T07:45:50.169Z,16.90
2019-04-07T07:48:20.815Z,16.85
2019-04-07T07:50:51.263Z,17.20
2019-04-07T07:53:23.670Z,17.00
2019-04-07T07:55:52.867Z,17.30
2019-04-07T07:58:22.636Z,18.62
2019-04-07T08:00:52.525Z,17.95
2019-04-07T08:03:22.942Z,16.37
2019-04-07T08:05:53.305Z,17.12
2019-04-07T08:08:23.441Z,17.20
2019-04-07T08:10:56.183Z,18.02
2019-04-07T08:13:24.820Z,17.57
2019-04-07T08:15:56.838Z,16.93
2019-04-07T08:18:26.186Z,20.23
2019-04-07T08:20:55.807Z,17.02
2019-04-07T08:23:26.237Z,16.10
2019-04-07T08:25:57.780Z,16.10
2019-04-07T08:28:27.286Z,15.15
2019-04-07T08:30:57.589Z,16.57
2019-04-07T08:33:29.508Z,15.20
2019-04-07T08:35:58.932Z,14.38
2019-04-07T08:38:28.549Z,14.30
2019-04-07T08:40:58.666Z,15.15
2019-04-07T08:43:28.327Z,14.63
2019-04-07T08:45:58.085Z,15.75
2019-04-07T08:48:27.942Z,14.25
2019-04-07T08:51:00.468Z,13.58
2019-04-07T08:53:29.460Z,12.80
2019-04-07T08:55:59.773Z,14.28
2019-04-07T08:58:33.128Z,14.58
2019-04-07T09:01:00.898Z,13.60
2019-04-07T09:03:30.537Z,13.43
2019-04-07T09:06:00.971Z,12.43
2019-04-07T09:08:30.734Z,11.55
2019-04-07T09:11:02.063Z,12.00
2019-04-07T09:13:34.078Z,11.85
2019-04-07T09:16:14.471Z,11.12
2019-04-07T09:19:03.808Z,11.85
2019-04-07T09:21:51.727Z,11.20
2019-04-07T09:24:24.905Z,10.80
2019-04-07T09:27:12.012Z,11.20
2019-04-07T09:30:02.441Z,11.45
2019-04-07T09:32:36.813Z,11.10
2019-04-07T09:35:25.724Z,11.65
2019-04-07T09:37:56.424Z,10.85
2019-04-07T09:40:27.928Z,12.33
2019-04-07T09:43:02.906Z,12.63
2019-04-07T09:45:49.947Z,12.28
2019-04-07T09:48:22.896Z,11.80
2019-04-07T09:51:07.299Z,13.13
2019-04-07T09:53:48.823Z,12.45
2019-04-07T09:56:33.701Z,13.18
2019-04-07T09:59:20.321Z,12.03
2019-04-07T10:01:54.186Z,31.42
2019-04-07T10:04:31.211Z,12.60
2019-04-07T10:07:09.212Z,13.32
2019-04-07T10:09:47.979Z,13.88
2019-04-07T10:12:27.765Z,12.50
2019-04-07T10:15:11.723Z,11.45
2019-04-07T10:17:43.781Z,12.73
2019-04-07T10:20:27.516Z,12.13
2019-04-07T10:23:05.183Z,12.63
2019-04-07T10:25:42.692Z,12.00
2019-04-07T10:28:26.672Z,12.33
2019-04-07T10:31:01.007Z,12.35
2019-04-07T10:33:35.770Z,11.25
2019-04-07T10:36:15.932Z,12.68
2019-04-07T10:38:48.021Z,11.85
2019-04-07T10:41:22.820Z,11.63
2019-04-07T10:43:54.120Z,12.13
2019-04-07T10:46:25.970Z,46.90
2019-04-07T10:49:00.286Z,13.58
2019-04-07T10:51:35.344Z,12.05
2019-04-07T10:54:12.716Z,12.23
2019-04-07T10:56:48.028Z,12.13
2019-04-07T10:59:19.935Z,11.33
2019-04-07T11:01:51.368Z,11.48
2019-04-07T11:04:38.778Z,11.60
2019-04-07T11:07:21.938Z,11.15
2019-04-07T11:10:02.904Z,12.55
2019-04-07T11:12:53.680Z,12.98
2019-04-07T11:15:34.081Z,12.75
2019-04-07T11:18:11.160Z,12.58
2019-04-07T11:20:58.994Z,11.93
2019-04-07T11:23:30.280Z,10.90
2019-04-07T11:26:18.036Z,12.15
2019-04-07T11:28:55.578Z,11.97
2019-04-07T11:31:27.686Z,13.40
2019-04-07T11:34:01.774Z,13.22
2019-04-07T11:36:36.365Z,12.93
2019-04-07T11:39:26.415Z,12.95
2019-04-07T11:42:06.213Z,12.55
2019-04-07T11:44:37.663Z,12.33
2019-04-07T11:47:15.377Z,12.30
2019-04-07T11:49:52.401Z,13.28
2019-04-07T11:52:26.622Z,12.43
2019-04-07T11:55:00.980Z,12.25
2019-04-07T11:57:45.301Z,12.68
2019-04-07T12:00:25.901Z,12.80
2019-04-07T12:03:09.586Z,11.90
2019-04-07T12:05:46.465Z,10.93
2019-04-07T12:08:20.450Z,11.83
2019-04-07T12:11:07.919Z,12.40
2019-04-07T12:13:42.774Z,12.18
2019-04-07T12:16:12.223Z,12.25
2019-04-07T12:18:44.077Z,13.68
2019-04-07T12:21:21.887Z,11.30
2019-04-07T12:23:55.040Z,12.07
2019-04-07T12:26:27.038Z,16.73
2019-04-07T12:28:58.318Z,11.80
2019-04-07T12:31:35.890Z,12.98
2019-04-07T12:34:23.611Z,12.35
2019-04-07T12:37:11.107Z,11.90
2019-04-07T12:39:49.509Z,12.95
2019-04-07T12:42:18.577Z,10.75
2019-04-07T12:44:52.886Z,11.28
2019-04-07T12:47:41.090Z,10.65
2019-04-07T12:50:19.730Z,14.75
2019-04-07T12:52:51.877Z,10.90
2019-04-07T12:55:23.283Z,10.90
2019-04-07T12:57:54.529Z,11.57
2019-04-07T13:00:25.845Z,11.08
2019-04-07T13:02:57.111Z,10.55
2019-04-07T13:05:34.623Z,10.88
2019-04-07T13:08:04.091Z,11.75
2019-04-07T13:10:37.904Z,11.83
2019-04-07T13:13:12.351Z,11.95
2019-04-07T13:15:49.863Z,12.23
2019-04-07T13:18:25.417Z,10.32
2019-04-07T13:20:59.400Z,10.80
2019-04-07T13:23:49.286Z,10.85
2019-04-07T13:26:22.788Z,12.10
2019-04-07T13:28:59.246Z,10.10
2019-04-07T13:31:30.550Z,10.00
2019-04-07T13:34:17.845Z,11.60
2019-04-07T13:37:01.289Z,10.35
2019-04-07T13:39:39.231Z,10.15
2019-04-07T13:42:15.282Z,10.98
2019-04-07T13:44:52.653Z,9.70
2019-04-07T13:47:30.123Z,9.63
2019-04-07T13:50:05.218Z,9.73
2019-04-07T13:52:40.859Z,10.28
2019-04-07T13:55:19.523Z,9.70
2019-04-07T13:57:57.839Z,9.40
2019-04-07T14:00:29.489Z,8.58
2019-04-07T14:03:06.962Z,9.58
2019-04-07T14:05:54.923Z,9.60
2019-04-07T14:08:40.605Z,8.38
2019-04-07T14:11:20.993Z,8.78
2019-04-07T14:14:11.167Z,8.95
2019-04-07T14:16:54.729Z,11.18
2019-04-07T14:19:44.469Z,8.68
2019-04-07T14:22:27.719Z,12.23
2019-04-07T14:25:07.997Z,8.43
2019-04-07T14:27:40.305Z,7.83
2019-04-07T14:30:12.561Z,7.20
2019-04-07T14:32:48.642Z,10.23
2019-04-07T14:35:35.707Z,12.75
2019-04-07T14:38:13.548Z,7.97
2019-04-07T14:40:47.587Z,7.85
2019-04-07T14:43:21.645Z,7.35
2019-04-07T14:46:10.058Z,7.83
2019-04-07T14:48:44.820Z,9.13
2019-04-07T14:51:25.173Z,8.75
2019-04-07T14:54:03.006Z,8.28
2019-04-07T14:56:46.736Z,10.78
2019-04-07T14:59:27.681Z,8.43
2019-04-07T15:02:00.899Z,9.70
2019-04-07T15:04:34.559Z,8.13
2019-04-07T15:07:21.916Z,10.50
2019-04-07T15:09:53.527Z,8.00
2019-04-07T15:12:26.352Z,8.58
2019-04-07T15:14:56.144Z,9.28
2019-04-07T15:17:26.268Z,10.55
2019-04-07T15:19:57.128Z,8.10
2019-04-07T15:22:29.973Z,9.43
2019-04-07T15:24:58.159Z,29.05
2019-04-07T15:27:28.326Z,10.70
2019-04-07T15:29:58.816Z,8.40
2019-04-07T15:32:29.987Z,8.18
2019-04-07T15:35:00.064Z,8.48
2019-04-07T15:37:30.037Z,8.18
2019-04-07T15:40:02.673Z,12.20
2019-04-07T15:42:38.975Z,8.35
2019-04-07T15:45:02.553Z,12.58
2019-04-07T15:47:32.172Z,8.85
2019-04-07T15:50:02.949Z,9.28
2019-04-07T15:52:32.853Z,8.38
2019-04-07T15:55:02.458Z,8.35
2019-04-07T15:57:32.518Z,8.48
2019-04-07T16:00:03.941Z,7.75
2019-04-07T16:02:33.602Z,7.70
2019-04-07T16:05:07.186Z,10.43
2019-04-07T16:07:37.413Z,8.75
2019-04-07T16:10:08.034Z,8.85
2019-04-07T16:12:45.125Z,16.40
2019-04-07T16:15:09.643Z,9.00
2019-04-07T16:17:40.198Z,9.83
2019-04-07T16:20:20.711Z,8.60
2019-04-07T16:22:45.824Z,8.78
2019-04-07T16:25:14.418Z,9.68
2019-04-07T16:27:44.628Z,9.50
2019-04-07T16:30:16.483Z,12.50
2019-04-07T16:32:45.744Z,13.75
2019-04-07T16:35:16.610Z,15.85
2019-04-07T16:37:46.361Z,13.95
2019-04-07T16:40:16.535Z,12.20
2019-04-07T16:43:02.969Z,12.45
2019-04-07T16:45:18.067Z,18.65
2019-04-07T16:47:47.841Z,16.02
2019-04-07T16:50:18.869Z,27.58
2019-04-07T16:52:49.648Z,20.45
2019-04-07T16:55:37.502Z,21.02
2019-04-07T16:58:08.426Z,14.50
2019-04-07T17:00:39.870Z,12.82
2019-04-07T17:03:10.048Z,10.13
2019-04-07T17:05:39.921Z,11.55
2019-04-07T17:08:09.762Z,11.57
2019-04-07T17:10:39.376Z,11.50
2019-04-07T17:13:17.047Z,11.43
2019-04-07T17:15:41.838Z,12.70
2019-04-07T17:18:31.107Z,13.13
2019-04-07T17:21:00.779Z,73.95
2019-04-07T17:23:30.420Z,83.62
2019-04-07T17:26:03.206Z,37.03
2019-04-07T17:28:31.414Z,20.72
2019-04-07T17:31:01.447Z,12.25
2019-04-07T17:33:35.152Z,25.20
2019-04-07T17:36:02.506Z,34.08
2019-04-07T17:38:45.661Z,32.53
2019-04-07T17:41:18.189Z,21.42
2019-04-07T17:43:53.445Z,22.98
2019-04-07T17:46:37.611Z,29.70
2019-04-07T17:49:12.108Z,32.33
2019-04-07T17:51:51.882Z,29.23
2019-04-07T17:54:32.425Z,36.80
2019-04-07T17:57:07.010Z,47.60
2019-04-07T17:59:48.434Z,73.72
2019-04-07T18:02:37.586Z,85.57
2019-04-07T18:05:26.618Z,96.37
2019-04-07T18:08:10.217Z,89.60
2019-04-07T18:10:43.273Z,84.47
2019-04-07T18:13:21.736Z,104.83
2019-04-07T18:15:59.890Z,112.25
2019-04-07T18:18:41.148Z,109.10
2019-04-07T18:21:15.447Z,103.78
2019-04-07T18:23:56.859Z,77.17
2019-04-07T18:26:29.784Z,51.10
2019-04-07T18:29:17.287Z,46.53
2019-04-07T18:32:09.708Z,37.55
2019-04-07T18:34:46.204Z,39.33
2019-04-07T18:37:18.000Z,43.05
2019-04-07T18:40:05.523Z,39.30
2019-04-07T18:42:44.330Z,42.05
2019-04-07T18:45:18.997Z,53.55
2019-04-07T18:47:52.349Z,47.08
2019-04-07T18:50:23.999Z,44.83
2019-04-07T18:52:57.086Z,44.98
2019-04-07T18:55:40.402Z,44.23
2019-04-07T18:58:29.704Z,46.42
2019-04-07T19:01:07.332Z,43.25
2019-04-07T19:03:33.998Z,44.85
2019-04-07T19:06:21.406Z,45.98
2019-04-07T19:09:00.995Z,49.42
2019-04-07T19:11:48.304Z,52.62
2019-04-07T19:14:40.217Z,49.40
2019-04-07T19:17:07.031Z,53.08
2019-04-07T19:19:53.238Z,51.42
2019-04-07T19:22:30.295Z,61.55
2019-04-07T19:25:09.254Z,54.40
2019-04-07T19:27:40.715Z,46.73
2019-04-07T19:30:14.436Z,49.30
2019-04-07T19:32:55.598Z,51.13
2019-04-07T19:35:36.445Z,61.80
2019-04-07T19:38:04.894Z,53.28
2019-04-07T19:40:49.252Z,53.50
2019-04-07T19:43:37.170Z,50.67
2019-04-07T19:46:14.653Z,54.42
2019-04-07T19:48:45.989Z,56.05
2019-04-07T19:51:19.881Z,65.80
2019-04-07T19:54:06.608Z,66.30
2019-04-07T19:56:44.399Z,71.50
2019-04-07T19:59:15.723Z,70.60
2019-04-07T20:01:50.342Z,71.02
2019-04-07T20:04:24.825Z,71.17
2019-04-07T20:07:09.218Z,71.30
2019-04-07T20:09:56.804Z,68.95
2019-04-07T20:12:45.426Z,74.37
2019-04-07T20:15:35.896Z,71.92
2019-04-07T20:18:15.395Z,78.62
2019-04-07T20:20:46.719Z,84.22
2019-04-07T20:23:36.151Z,89.32
2019-04-07T20:26:07.966Z,85.65
2019-04-07T20:28:43.604Z,79.03
2019-04-07T20:31:21.877Z,84.67
2019-04-07T20:34:04.610Z,82.50
2019-04-07T20:36:40.225Z,88.62
2019-04-07T20:39:11.572Z,88.78
2019-04-07T20:41:45.510Z,84.95
2019-04-07T20:44:17.685Z,81.37
2019-04-07T20:46:56.816Z,84.28
2019-04-07T20:49:34.021Z,80.75
2019-04-07T20:52:22.257Z,82.65
2019-04-07T20:55:05.740Z,82.65
2019-04-07T20:57:46.268Z,83.35
2019-04-07T21:00:37.197Z,81.02
2019-04-07T21:03:23.804Z,78.30
2019-04-07T21:06:10.577Z,77.00
2019-04-07T21:08:51.739Z,76.87
2019-04-07T21:11:42.886Z,79.95
2019-04-07T21:14:23.975Z,82.67
2019-04-07T21:17:01.623Z,78.17
2019-04-07T21:19:49.707Z,73.62
2019-04-07T21:22:23.936Z,68.75
2019-04-07T21:25:09.736Z,68.87
2019-04-07T21:27:48.936Z,57.98
2019-04-07T21:30:20.650Z,59.93
2019-04-07T21:32:58.023Z,61.92
2019-04-07T21:35:40.828Z,63.60
2019-04-07T21:38:20.865Z,66.75
2019-04-07T21:40:53.701Z,63.92
2019-04-07T21:43:28.446Z,63.40
2019-04-07T21:46:09.936Z,63.60
2019-04-07T21:48:41.327Z,65.12
2019-04-07T21:51:15.390Z,64.97
2019-04-07T21:53:45.741Z,67.10
2019-04-07T21:56:17.895Z,66.05
2019-04-07T21:58:49.294Z,66.20
2019-04-07T22:01:20.593Z,64.40
2019-04-07T22:03:54.846Z,65.03
2019-04-07T22:06:29.835Z,66.80
2019-04-07T22:09:02.230Z,59.85
2019-04-07T22:11:32.595Z,56.18
2019-04-07T22:14:04.142Z,63.85
2019-04-07T22:16:34.254Z,65.67
2019-04-07T22:19:04.256Z,63.78
2019-04-07T22:21:34.151Z,59.08
2019-04-07T22:24:04.820Z,56.05
2019-04-07T22:26:34.979Z,58.68
2019-04-07T22:29:05.535Z,52.80
2019-04-07T22:31:43.902Z,46.42
2019-04-07T22:34:11.147Z,42.75
2019-04-07T22:36:43.744Z,38.80
2019-04-07T22:39:12.131Z,37.63
2019-04-07T22:41:42.849Z,43.38
2019-04-07T22:44:13.375Z,43.25
2019-04-07T22:46:43.718Z,44.75
2019-04-07T22:49:13.541Z,40.85
2019-04-07T22:51:46.014Z,37.90
2019-04-07T22:54:14.519Z,37.85
2019-04-07T22:56:44.662Z,41.42
2019-04-07T22:59:14.292Z,41.05
2019-04-07T23:01:43.963Z,38.95
2019-04-07T23:04:14.044Z,40.43
2019-04-07T23:06:44.621Z,39.78
2019-04-07T23:09:14.251Z,39.75
2019-04-07T23:11:44.152Z,38.92
2019-04-07T23:14:13.908Z,39.70
2019-04-07T23:16:44.348Z,37.25
2019-04-07T23:19:14.343Z,35.75
2019-04-07T23:21:44.136Z,38.60
2019-04-07T23:24:13.865Z,38.67
2019-04-07T23:26:43.539Z,36.65
2019-04-07T23:29:14.163Z,39.73
2019-04-07T23:31:44.082Z,40.85
2019-04-07T23:34:13.725Z,36.93
2019-04-07T23:36:43.626Z,39.75
2019-04-07T23:39:13.290Z,41.30
2019-04-07T23:41:43.555Z,39.20
2019-04-07T23:44:13.160Z,38.53
2019-04-07T23:46:43.536Z,37.42
2019-04-07T23:49:13.219Z,31.07
2019-04-07T23:51:43.458Z,36.13
2019-04-07T23:54:14.347Z,36.10
2019-04-07T23:56:44.462Z,35.63
2019-04-07T23:59:15.085Z,37.05
